Terminal Aerodrome Forecast
Issued by NWS Louisville, KY

Home | Current Version | Previous Version | Text Only | Print | Product List | Glossary On
Versions: 1 2 3 4 5 6 7 8 9 10 11 12 13 14 15 16 17
621
FTUS43 KLMK 090525
TAFLEX
TAF
KLEX 090525Z 0906/1006 31009KT P6SM -SN OVC028
     FM091200 28005KT P6SM OVC023
     FM091800 27007KT P6SM SCT030=

USA.gov is the U.S. government's official web portal to all federal, state and local government web resources and services.